Terminal Aerodrome Forecast
Issued by NWS Amarillo, TX

Home | Current Version | Previous Version | Text Only | Print | Product List | Glossary On
Versions: 1 2 3 4 5 6 7 8 9 10 11 12 13 14
666
FTUS44 KAMA 251121
TAFGUY
TAF
KGUY 251121Z 2512/2612 VRB06KT P6SM SKC
     FM251800 20011G16KT P6SM SKC
     FM260700 VRB06KT P6SM OVC100=

USA.gov is the U.S. government's official web portal to all federal, state and local government web resources and services.